createdAt,value
2018-01-01T00:01:34.510Z,6.73
2018-01-01T00:04:04.256Z,6.69
2018-01-01T00:06:33.071Z,6.74
2018-01-01T00:09:02.112Z,6.74
2018-01-01T00:11:31.098Z,6.79
2018-01-01T00:14:00.084Z,6.79
2018-01-01T00:16:31.708Z,6.73
2018-01-01T00:19:00.699Z,6.66
2018-01-01T00:21:34.043Z,6.50
2018-01-01T00:24:03.029Z,5.94
2018-01-01T00:26:32.197Z,5.73
2018-01-01T00:29:02.108Z,5.45
2018-01-01T00:31:31.098Z,5.41
2018-01-01T00:33:59.996Z,5.08
2018-01-01T00:36:28.987Z,5.01
2018-01-01T00:38:58.052Z,4.98
2018-01-01T00:41:26.977Z,4.83
2018-01-01T00:43:56.066Z,4.93
2018-01-01T00:46:24.991Z,5.24
2018-01-01T00:48:54.822Z,5.70
2018-01-01T00:53:59.207Z,6.36
2018-01-01T00:56:28.334Z,6.62
2018-01-01T00:58:57.479Z,6.86
2018-01-01T01:01:28.150Z,7.03
2018-01-01T01:03:57.234Z,7.13
2018-01-01T01:06:27.055Z,7.21
2018-01-01T01:08:56.759Z,7.23
2018-01-01T01:14:02.270Z,6.76
2018-01-01T01:16:31.260Z,6.18
2018-01-01T01:19:01.168Z,6.16
2018-01-01T01:21:31.043Z,6.00
2018-01-01T01:24:00.757Z,5.67
2018-01-01T01:26:29.754Z,5.49
2018-01-01T01:28:58.944Z,5.44
2018-01-01T01:31:27.938Z,5.22
2018-01-01T01:33:57.648Z,5.21
2018-01-01T01:36:26.647Z,5.25
2018-01-01T01:38:55.738Z,5.39
2018-01-01T01:44:01.822Z,5.78
2018-01-01T01:46:30.835Z,5.82
2018-01-01T01:49:01.752Z,5.77
2018-01-01T01:51:30.707Z,5.77
2018-01-01T01:53:59.665Z,5.84
2018-01-01T01:56:29.511Z,5.90
2018-01-01T01:58:59.356Z,6.00
2018-01-01T02:01:28.346Z,6.17
2018-01-01T02:03:59.121Z,6.33
2018-01-01T02:06:28.077Z,6.46
2018-01-01T02:08:57.120Z,6.61
2018-01-01T02:11:26.951Z,6.77
2018-01-01T02:13:56.909Z,6.83
2018-01-01T02:16:25.901Z,6.96
2018-01-01T02:18:56.676Z,7.01
2018-01-01T02:21:25.740Z,7.08
2018-01-01T02:23:54.750Z,7.13
2018-01-01T02:26:23.727Z,7.15
2018-01-01T02:28:52.920Z,7.23
2018-01-01T02:31:21.832Z,7.21
2018-01-01T02:34:03.118Z,7.29
2018-01-01T02:36:33.343Z,7.34
2018-01-01T02:39:02.229Z,7.42
2018-01-01T02:41:31.223Z,7.41
2018-01-01T02:44:01.764Z,7.45
2018-01-01T02:46:30.550Z,7.48
2018-01-01T02:49:02.097Z,7.53
2018-01-01T02:51:30.957Z,7.49
2018-01-01T02:54:01.971Z,7.50
2018-01-01T02:56:30.924Z,7.41
2018-01-01T02:58:59.809Z,7.43
2018-01-01T03:01:28.808Z,7.45
2018-01-01T03:04:01.076Z,7.49
2018-01-01T03:06:29.950Z,7.50
2018-01-01T03:08:59.025Z,7.51
2018-01-01T03:11:28.922Z,7.38
2018-01-01T03:13:58.092Z,7.30
2018-01-01T03:16:27.117Z,7.34
2018-01-01T03:18:57.273Z,7.31
2018-01-01T03:21:26.240Z,7.27
2018-01-01T03:23:55.210Z,7.31
2018-01-01T03:26:25.946Z,7.36
2018-01-01T03:28:54.925Z,7.38
2018-01-01T03:31:24.145Z,7.30
2018-01-01T03:33:54.089Z,7.28
2018-01-01T03:36:23.044Z,7.38
2018-01-01T03:38:51.987Z,7.33
2018-01-01T03:41:22.773Z,7.34
2018-01-01T03:43:51.665Z,7.28
2018-01-01T03:46:20.555Z,7.26
2018-01-01T03:48:50.293Z,7.19
2018-01-01T03:51:20.360Z,7.06
2018-01-01T03:53:49.178Z,6.96
2018-01-01T03:56:19.007Z,6.85
2018-01-01T03:58:51.304Z,6.85
2018-01-01T04:01:20.219Z,6.91
2018-01-01T04:03:50.062Z,6.89
2018-01-01T04:06:19.017Z,6.92
2018-01-01T04:08:48.895Z,6.95
2018-01-01T04:11:17.932Z,7.02
2018-01-01T04:13:46.947Z,7.03
2018-01-01T04:16:16.937Z,7.04
2018-01-01T04:18:45.975Z,7.15
2018-01-01T04:21:14.970Z,7.21
2018-01-01T04:23:44.755Z,7.20
2018-01-01T04:26:13.885Z,7.24
2018-01-01T04:28:42.843Z,7.27
2018-01-01T04:31:11.806Z,7.37
2018-01-01T04:33:40.731Z,7.46
2018-01-01T04:36:12.182Z,7.54
2018-01-01T04:38:42.160Z,7.62
2018-01-01T04:41:11.116Z,7.65
2018-01-01T04:43:40.083Z,7.71
2018-01-01T04:46:09.894Z,7.71
2018-01-01T04:48:38.968Z,7.65
2018-01-01T04:51:08.760Z,7.59
2018-01-01T04:53:38.933Z,7.51
2018-01-01T04:56:07.839Z,7.48
2018-01-01T04:58:36.754Z,7.43
2018-01-01T05:01:06.724Z,7.19
2018-01-01T05:03:35.613Z,7.01
2018-01-01T05:06:04.607Z,6.80
2018-01-01T05:08:33.601Z,6.80
2018-01-01T05:11:02.525Z,6.72
2018-01-01T05:13:31.591Z,6.63
2018-01-01T05:16:00.615Z,6.61
2018-01-01T05:18:29.817Z,6.69
2018-01-01T05:20:58.775Z,6.69
2018-01-01T05:23:27.637Z,6.74
2018-01-01T05:25:57.445Z,6.59
2018-01-01T05:28:26.496Z,6.69
2018-01-01T05:30:57.145Z,6.65
2018-01-01T05:33:26.139Z,6.66
2018-01-01T05:35:55.194Z,6.65
2018-01-01T05:38:25.286Z,6.63
2018-01-01T05:40:54.944Z,6.47
2018-01-01T05:43:23.819Z,6.34
2018-01-01T05:45:53.763Z,6.34
2018-01-01T05:48:22.824Z,6.36
2018-01-01T05:50:52.483Z,6.49
2018-01-01T05:53:21.422Z,6.49
2018-01-01T05:55:51.132Z,6.57
2018-01-01T05:58:20.932Z,6.62
2018-01-01T06:00:50.702Z,6.61
2018-01-01T06:03:19.656Z,6.49
2018-01-01T06:05:48.507Z,6.50
2018-01-01T06:08:21.568Z,6.50
2018-01-01T06:10:50.483Z,6.49
2018-01-01T06:13:20.306Z,6.47
2018-01-01T06:15:49.636Z,6.34
2018-01-01T06:18:18.750Z,6.46
2018-01-01T06:20:47.640Z,6.52
2018-01-01T06:23:16.730Z,6.53
2018-01-01T06:25:45.784Z,6.61
2018-01-01T06:28:14.675Z,6.68
2018-01-01T06:30:44.526Z,6.77
2018-01-01T06:33:13.785Z,6.82
2018-01-01T06:35:42.881Z,6.91
2018-01-01T06:38:13.718Z,7.04
2018-01-01T06:40:42.815Z,7.18
2018-01-01T06:43:11.914Z,7.27
2018-01-01T06:45:41.823Z,7.38
2018-01-01T06:48:10.714Z,7.52
2018-01-01T06:50:39.564Z,7.59
2018-01-01T06:53:09.460Z,7.73
2018-01-01T06:55:38.519Z,7.91
2018-01-01T06:58:07.510Z,8.04
2018-01-01T07:00:37.497Z,8.11
2018-01-01T07:03:08.058Z,8.24
2018-01-01T07:05:36.953Z,8.34
2018-01-01T07:08:06.992Z,8.34
2018-01-01T07:10:35.961Z,8.47
2018-01-01T07:13:05.982Z,8.44
2018-01-01T07:15:34.878Z,8.56
2018-01-01T07:18:03.770Z,8.71
2018-01-01T07:20:32.972Z,8.80
2018-01-01T07:25:36.166Z,8.96
2018-01-01T07:28:05.070Z,9.06
2018-01-01T07:30:35.850Z,8.95
2018-01-01T07:33:04.936Z,8.97
2018-01-01T07:35:33.874Z,9.08
2018-01-01T07:38:10.199Z,9.17
2018-01-01T07:40:39.384Z,9.18
2018-01-01T07:43:09.085Z,9.21
2018-01-01T07:48:12.573Z,9.26
2018-01-01T07:50:41.565Z,9.29
2018-01-01T07:53:11.639Z,9.37
2018-01-01T07:55:42.473Z,9.47
2018-01-01T07:58:11.453Z,9.48
2018-01-01T08:00:42.250Z,9.59
2018-01-01T08:03:11.438Z,9.68
2018-01-01T08:05:40.957Z,9.63
2018-01-01T08:08:10.688Z,9.56
2018-01-01T08:10:39.662Z,9.62
2018-01-01T08:13:08.588Z,9.63
2018-01-01T08:15:38.498Z,9.67
2018-01-01T08:18:07.536Z,9.67
2018-01-01T08:20:36.551Z,9.79
2018-01-01T08:23:07.242Z,9.80
2018-01-01T08:25:36.080Z,9.89
2018-01-01T08:28:05.081Z,9.93
2018-01-01T08:30:34.925Z,10.01
2018-01-01T08:33:04.705Z,10.01
2018-01-01T08:35:33.586Z,10.02
2018-01-01T08:38:04.333Z,10.04
2018-01-01T08:40:33.465Z,10.14
2018-01-01T08:43:03.234Z,10.17
2018-01-01T08:45:34.700Z,10.14
2018-01-01T08:48:03.783Z,10.15
2018-01-01T08:50:32.761Z,10.25
2018-01-01T08:53:01.805Z,10.24
2018-01-01T08:55:30.864Z,10.17
2018-01-01T08:57:59.789Z,10.12
2018-01-01T09:00:28.787Z,10.10
2018-01-01T09:02:58.562Z,10.24
2018-01-01T09:05:27.663Z,10.18
2018-01-01T09:07:57.453Z,10.19
2018-01-01T09:10:27.338Z,10.22
2018-01-01T09:12:56.222Z,10.20
2018-01-01T09:15:25.249Z,10.36
2018-01-01T09:17:54.161Z,10.46
2018-01-01T09:20:23.081Z,10.49
2018-01-01T09:22:51.983Z,10.57
2018-01-01T09:25:20.862Z,10.54
2018-01-01T09:27:49.731Z,10.57
2018-01-01T09:30:20.465Z,10.40
2018-01-01T09:32:49.690Z,10.41
2018-01-01T09:35:18.657Z,10.42
2018-01-01T09:37:49.452Z,10.55
2018-01-01T09:40:18.445Z,10.65
2018-01-01T09:42:56.041Z,10.75
2018-01-01T09:45:25.781Z,10.70
2018-01-01T09:47:54.643Z,10.55
2018-01-01T09:50:24.599Z,10.65
2018-01-01T09:52:54.783Z,10.61
2018-01-01T09:55:24.643Z,10.58
2018-01-01T09:57:53.764Z,10.47
2018-01-01T10:00:22.803Z,10.54
2018-01-01T10:02:51.824Z,10.63
2018-01-01T10:05:23.467Z,10.73
2018-01-01T10:07:52.438Z,10.81
2018-01-01T10:10:22.152Z,10.79
2018-01-01T10:12:52.139Z,10.93
2018-01-01T10:15:22.072Z,10.90
2018-01-01T10:17:50.946Z,10.95
2018-01-01T10:20:20.872Z,10.98
2018-01-01T10:22:50.175Z,10.91
2018-01-01T10:25:19.035Z,10.82
2018-01-01T10:27:49.241Z,10.90
2018-01-01T10:30:19.114Z,11.00
2018-01-01T10:32:48.102Z,11.07
2018-01-01T10:35:18.843Z,11.09
2018-01-01T10:37:47.866Z,11.12
2018-01-01T10:40:16.821Z,10.99
2018-01-01T10:42:46.714Z,11.09
2018-01-01T10:45:16.629Z,11.08
2018-01-01T10:47:45.645Z,11.11
2018-01-01T10:50:16.390Z,11.06
2018-01-01T10:52:45.300Z,10.99
2018-01-01T10:55:14.368Z,11.10
2018-01-01T10:57:44.239Z,11.13
2018-01-01T11:00:13.174Z,10.81
2018-01-01T11:02:42.269Z,10.78
2018-01-01T11:05:12.243Z,10.78
2018-01-01T11:07:41.228Z,10.64
2018-01-01T11:10:10.173Z,10.67
2018-01-01T11:12:39.274Z,10.65
2018-01-01T11:15:08.266Z,10.46
2018-01-01T11:17:37.257Z,10.44
2018-01-01T11:20:06.277Z,10.37
2018-01-01T11:22:38.046Z,10.34
2018-01-01T11:25:08.715Z,10.22
2018-01-01T11:27:38.728Z,10.41
2018-01-01T11:30:07.627Z,10.20
2018-01-01T11:32:39.516Z,10.30
2018-01-01T11:35:08.540Z,10.40
2018-01-01T11:37:38.294Z,10.47
2018-01-01T11:40:07.189Z,10.51
2018-01-01T11:42:36.032Z,10.35
2018-01-01T11:45:05.045Z,10.30
2018-01-01T11:47:36.936Z,10.36
2018-01-01T11:50:05.844Z,10.32
2018-01-01T11:52:34.840Z,10.20
2018-01-01T11:55:04.994Z,10.11
2018-01-01T11:57:33.850Z,10.16
2018-01-01T12:00:03.810Z,10.06
2018-01-01T12:02:32.760Z,9.89
2018-01-01T12:05:01.992Z,9.85
2018-01-01T12:07:30.885Z,9.87
2018-01-01T12:10:00.628Z,9.93
2018-01-01T12:12:29.584Z,9.87
2018-01-01T12:14:58.559Z,10.01
2018-01-01T12:17:29.282Z,9.98
2018-01-01T12:19:58.163Z,10.02
2018-01-01T12:22:27.166Z,10.01
2018-01-01T12:24:57.591Z,9.85
2018-01-01T12:27:26.461Z,9.79
2018-01-01T12:29:55.517Z,9.83
2018-01-01T12:32:24.509Z,9.84
2018-01-01T12:34:56.312Z,9.88
2018-01-01T12:37:27.791Z,9.89
2018-01-01T12:39:56.662Z,9.98
2018-01-01T12:42:25.775Z,10.03
2018-01-01T12:44:55.621Z,10.01
2018-01-01T12:47:25.511Z,9.96
2018-01-01T12:49:54.434Z,10.08
2018-01-01T12:52:24.311Z,10.02
2018-01-01T12:54:53.514Z,9.94
2018-01-01T12:57:22.505Z,9.83
2018-01-01T12:59:54.224Z,9.93
2018-01-01T13:02:23.880Z,9.97
2018-01-01T13:04:55.343Z,9.70
2018-01-01T13:07:24.615Z,9.55
2018-01-01T13:09:54.368Z,9.49
2018-01-01T13:12:23.259Z,9.47
2018-01-01T13:14:52.323Z,9.36
2018-01-01T13:17:21.314Z,9.45
2018-01-01T13:19:50.492Z,9.49
2018-01-01T13:22:19.614Z,9.46
2018-01-01T13:24:48.673Z,9.37
2018-01-01T13:27:19.142Z,9.43
2018-01-01T13:29:48.119Z,9.47
2018-01-01T13:32:17.932Z,9.45
2018-01-01T13:34:49.478Z,9.45
2018-01-01T13:37:18.381Z,9.48
2018-01-01T13:39:47.616Z,9.42
2018-01-01T13:42:18.660Z,9.30
2018-01-01T13:44:47.671Z,9.27
2018-01-01T13:47:16.611Z,9.19
2018-01-01T13:49:46.425Z,9.22
2018-01-01T13:52:15.317Z,9.26
2018-01-01T13:54:44.184Z,9.21
2018-01-01T13:57:14.829Z,9.24
2018-01-01T13:59:44.956Z,9.17
2018-01-01T14:02:13.825Z,9.12
2018-01-01T14:04:43.714Z,9.08
2018-01-01T14:07:12.810Z,9.16
2018-01-01T14:09:41.733Z,8.91
2018-01-01T14:12:12.299Z,9.03
2018-01-01T14:14:41.286Z,9.05
2018-01-01T14:17:11.220Z,8.94
2018-01-01T14:19:40.226Z,8.82
2018-01-01T14:22:09.199Z,8.77
2018-01-01T14:24:38.383Z,8.65
2018-01-01T14:27:08.990Z,8.55
2018-01-01T14:29:37.979Z,8.53
2018-01-01T14:32:06.897Z,8.46
2018-01-01T14:34:38.788Z,8.42
2018-01-01T14:37:09.083Z,8.34
2018-01-01T14:39:37.973Z,8.28
2018-01-01T14:42:06.963Z,8.30
2018-01-01T14:44:36.884Z,8.34
2018-01-01T14:47:06.080Z,8.30
2018-01-01T14:49:35.828Z,8.27
2018-01-01T14:52:04.888Z,8.17
2018-01-01T14:54:33.983Z,8.15
2018-01-01T14:57:04.776Z,8.18
2018-01-01T14:59:33.688Z,8.21
2018-01-01T15:02:03.416Z,8.15
2018-01-01T15:04:33.234Z,8.12
2018-01-01T15:07:03.184Z,8.04
2018-01-01T15:09:32.216Z,7.91
2018-01-01T15:12:01.167Z,7.93
2018-01-01T15:14:30.941Z,7.85
2018-01-01T15:17:00.764Z,7.83
2018-01-01T15:19:29.861Z,7.68
2018-01-01T15:21:58.963Z,7.62
2018-01-01T15:24:27.945Z,7.60
2018-01-01T15:27:00.735Z,7.61
2018-01-01T15:29:29.724Z,7.60
2018-01-01T15:31:59.601Z,7.58
2018-01-01T15:34:30.376Z,7.56
2018-01-01T15:37:00.337Z,7.49
2018-01-01T15:39:29.425Z,7.48
2018-01-01T15:44:33.212Z,7.43
2018-01-01T15:47:03.333Z,7.39
2018-01-01T15:49:37.316Z,7.36
2018-01-01T15:52:06.226Z,7.35
2018-01-01T15:54:36.257Z,7.30
2018-01-01T15:57:06.199Z,7.23
2018-01-01T15:59:35.266Z,7.16
2018-01-01T16:02:04.242Z,7.11
2018-01-01T16:04:34.273Z,7.04
2018-01-01T16:07:03.405Z,7.06
2018-01-01T16:09:32.340Z,7.04
2018-01-01T16:12:01.447Z,7.14
2018-01-01T16:14:30.489Z,7.20
2018-01-01T16:17:00.171Z,7.19
2018-01-01T16:19:31.073Z,7.20
2018-01-01T16:22:00.814Z,7.22
2018-01-01T16:24:29.809Z,7.22
2018-01-01T16:27:00.689Z,7.14
2018-01-01T16:29:30.323Z,7.15
2018-01-01T16:31:59.588Z,7.15
2018-01-01T16:34:29.572Z,7.07
2018-01-01T16:36:58.545Z,7.05
2018-01-01T16:39:27.698Z,7.06
2018-01-01T16:41:57.623Z,6.97
2018-01-01T16:44:27.726Z,7.00
2018-01-01T16:46:56.737Z,7.05
2018-01-01T16:49:28.478Z,7.08
2018-01-01T16:51:57.451Z,7.02
2018-01-01T16:54:26.878Z,7.04
2018-01-01T16:57:02.632Z,6.98
2018-01-01T16:59:31.491Z,6.94
2018-01-01T17:02:00.425Z,6.97
2018-01-01T17:04:29.270Z,7.07
2018-01-01T17:06:58.146Z,7.08
2018-01-01T17:09:26.955Z,7.11
2018-01-01T17:11:55.856Z,7.02
2018-01-01T17:14:24.662Z,6.97
2018-01-01T17:16:53.462Z,6.99
2018-01-01T17:19:22.416Z,7.05
2018-01-01T17:21:51.269Z,7.04
2018-01-01T17:24:20.134Z,7.08
2018-01-01T17:26:49.844Z,7.09
2018-01-01T17:29:18.709Z,7.14
2018-01-01T17:31:47.633Z,7.14
2018-01-01T17:34:17.460Z,7.17
2018-01-01T17:36:46.443Z,7.14
2018-01-01T17:39:15.383Z,7.15
2018-01-01T17:41:44.367Z,7.15
2018-01-01T17:44:13.403Z,7.13
2018-01-01T17:46:51.079Z,7.10
2018-01-01T17:49:19.962Z,7.04
2018-01-01T17:51:48.847Z,7.06
2018-01-01T17:54:17.877Z,7.11
2018-01-01T17:56:46.791Z,7.14
2018-01-01T17:59:15.647Z,7.14
2018-01-01T18:01:44.557Z,7.05
2018-01-01T18:04:13.477Z,7.06
2018-01-01T18:06:42.341Z,7.10
2018-01-01T18:11:44.950Z,7.10
2018-01-01T18:14:13.781Z,7.12
2018-01-01T18:16:44.591Z,7.04
2018-01-01T18:19:13.474Z,6.97
2018-01-01T18:21:42.296Z,6.99
2018-01-01T18:24:14.942Z,6.96
2018-01-01T18:26:44.005Z,6.93
2018-01-01T18:29:12.829Z,6.92
2018-01-01T18:31:41.690Z,6.89
2018-01-01T18:34:10.550Z,6.85
2018-01-01T18:36:39.434Z,6.78
2018-01-01T18:39:08.385Z,6.69
2018-01-01T18:41:37.228Z,6.63
2018-01-01T18:44:07.098Z,6.61
2018-01-01T18:46:36.784Z,6.62
2018-01-01T18:49:05.610Z,6.58
2018-01-01T18:51:34.429Z,6.52
2018-01-01T18:54:03.324Z,6.50
2018-01-01T18:56:32.168Z,6.53
2018-01-01T18:59:01.018Z,6.52
2018-01-01T19:01:29.867Z,6.53
2018-01-01T19:03:58.644Z,6.54
2018-01-01T19:06:27.455Z,6.52
2018-01-01T19:08:56.261Z,6.53
2018-01-01T19:11:25.080Z,6.54
2018-01-01T19:13:53.891Z,6.52
2018-01-01T19:16:22.725Z,6.52
2018-01-01T19:18:51.884Z,6.43
2018-01-01T19:21:20.837Z,6.45
2018-01-01T19:23:51.425Z,6.47
2018-01-01T19:26:20.260Z,6.50
2018-01-01T19:28:49.144Z,6.53
2018-01-01T19:31:18.030Z,6.55
2018-01-01T19:33:46.850Z,6.52
2018-01-01T19:36:15.750Z,6.44
2018-01-01T19:38:46.335Z,6.40
2018-01-01T19:41:15.117Z,6.39
2018-01-01T19:43:43.948Z,6.38
2018-01-01T19:46:14.615Z,6.33
2018-01-01T19:48:43.508Z,6.31
2018-01-01T19:51:12.324Z,6.30
2018-01-01T19:53:43.934Z,6.30
2018-01-01T19:56:12.735Z,6.30
2018-01-01T19:58:42.463Z,6.33
2018-01-01T20:01:12.962Z,6.33
2018-01-01T20:03:41.786Z,6.35
2018-01-01T20:06:10.622Z,6.33
2018-01-01T20:08:42.367Z,6.33
2018-01-01T20:11:11.170Z,6.26
2018-01-01T20:13:40.011Z,6.29
2018-01-01T20:16:09.816Z,6.27
2018-01-01T20:18:38.746Z,6.24
2018-01-01T20:21:07.652Z,6.20
2018-01-01T20:23:37.569Z,6.24
2018-01-01T20:26:06.498Z,6.33
2018-01-01T20:28:35.374Z,6.39
2018-01-01T20:31:04.579Z,6.41
2018-01-01T20:33:33.583Z,6.43
2018-01-01T20:36:02.562Z,6.45
2018-01-01T20:38:33.062Z,6.48
2018-01-01T20:41:01.872Z,6.49
2018-01-01T20:43:30.764Z,6.48
2018-01-01T20:45:59.691Z,6.41
2018-01-01T20:48:28.581Z,6.34
2018-01-01T20:50:57.390Z,6.33
2018-01-01T20:53:28.096Z,6.33
2018-01-01T20:55:57.026Z,6.32
2018-01-01T20:58:25.874Z,6.38
2018-01-01T21:00:54.796Z,6.34
2018-01-01T21:03:23.766Z,6.35
2018-01-01T21:05:54.917Z,6.40
2018-01-01T21:08:23.834Z,6.44
2018-01-01T21:10:52.654Z,6.42
2018-01-01T21:13:21.640Z,6.41
2018-01-01T21:15:51.631Z,6.43
2018-01-01T21:18:20.474Z,6.43
2018-01-01T21:20:49.482Z,6.49
2018-01-01T21:23:18.450Z,6.50
2018-01-01T21:25:47.323Z,6.49
2018-01-01T21:28:16.412Z,6.52
2018-01-01T21:30:45.373Z,6.54
2018-01-01T21:33:14.267Z,6.51
2018-01-01T21:35:43.205Z,6.50
2018-01-01T21:38:12.114Z,6.42
2018-01-01T21:40:41.078Z,6.41
2018-01-01T21:43:09.977Z,6.43
2018-01-01T21:45:38.860Z,6.43
2018-01-01T21:48:07.698Z,6.43
2018-01-01T21:50:36.677Z,6.43
2018-01-01T21:53:11.618Z,6.41
2018-01-01T21:55:40.477Z,6.37
2018-01-01T21:58:09.462Z,6.39
2018-01-01T22:03:13.199Z,6.45
2018-01-01T22:05:42.026Z,6.50
2018-01-01T22:08:14.070Z,6.56
2018-01-01T22:10:42.939Z,6.54
2018-01-01T22:13:11.820Z,6.57
2018-01-01T22:15:42.459Z,6.56
2018-01-01T22:18:11.456Z,6.51
2018-01-01T22:20:40.284Z,6.52
2018-01-01T22:25:44.554Z,6.47
2018-01-01T22:28:13.509Z,6.47
2018-01-01T22:30:42.705Z,6.52
2018-01-01T22:33:11.801Z,6.46
2018-01-01T22:35:40.794Z,6.47
2018-01-01T22:38:10.685Z,6.47
2018-01-01T22:40:42.827Z,6.50
2018-01-01T22:43:12.812Z,6.53
2018-01-01T22:45:41.877Z,6.49
2018-01-01T22:48:10.997Z,6.48
2018-01-01T22:50:41.931Z,6.49
2018-01-01T22:53:11.166Z,6.51
2018-01-01T22:55:40.132Z,6.60
2018-01-01T22:58:10.955Z,6.59
2018-01-01T23:00:40.105Z,6.65
2018-01-01T23:03:10.171Z,6.68
2018-01-01T23:05:42.336Z,6.78
2018-01-01T23:08:11.535Z,6.80
2018-01-01T23:10:40.530Z,6.78
2018-01-01T23:13:10.298Z,6.77
2018-01-01T23:15:39.234Z,6.80
2018-01-01T23:18:08.020Z,6.84
2018-01-01T23:20:37.008Z,6.89
2018-01-01T23:23:06.008Z,6.86
2018-01-01T23:25:36.948Z,6.89
2018-01-01T23:28:06.044Z,7.00
2018-01-01T23:30:35.141Z,7.04
2018-01-01T23:33:04.132Z,7.09
2018-01-01T23:35:33.133Z,7.17
2018-01-01T23:38:02.128Z,7.19
2018-01-01T23:40:31.048Z,7.15
2018-01-01T23:43:00.826Z,7.15
2018-01-01T23:45:30.128Z,7.11
2018-01-01T23:47:59.046Z,7.03
2018-01-01T23:50:32.006Z,7.04
2018-01-01T23:53:01.101Z,7.10
2018-01-01T23:55:31.145Z,7.19
2018-01-01T23:58:00.315Z,7.25
